Time;durP1;ratioP1;P1;durP2;ratioP2;P2;SDS_P1;SDS_P2;PMS_P1;PMS_P2;Temp;Humidity;BMP_temperature;BMP_pressure;BME280_temperature;BME280_humidity;BME280_pressure;Samples;Min_cycle;Max_cycle;Signal;HPM_P1;HPM_P2
2024/02/13 00:01:34;;;;;;;6.53;4.20;;;;;;;7.05;47.00;101050.56;4933012;29;20047;-72
2024/02/13 00:04:03;;;;;;;6.25;4.00;;;;;;;7.00;47.00;101055.47;4932754;29;20048;-72
2024/02/13 00:06:31;;;;;;;7.68;3.95;;;;;;;6.96;47.22;101060.25;4933420;29;20036;-72
2024/02/13 00:08:59;;;;;;;6.88;4.30;;;;;;;6.94;47.46;101062.19;4937123;29;20047;-72
2024/02/13 00:11:27;;;;;;;7.35;4.20;;;;;;;6.92;46.90;101052.41;4937091;29;20067;-72
2024/02/13 00:13:56;;;;;;;6.50;4.40;;;;;;;6.88;46.83;101059.03;4926193;29;20055;-72
2024/02/13 00:16:27;;;;;;;6.25;4.30;;;;;;;6.82;46.87;101069.38;4916659;29;20080;-72
2024/02/13 00:19:01;;;;;;;7.82;4.60;;;;;;;6.80;46.95;101071.31;4916558;29;20060;-72
2024/02/13 00:21:29;;;;;;;7.65;5.22;;;;;;;6.76;47.09;101068.94;4898748;29;20064;-72
2024/02/13 00:23:57;;;;;;;5.90;4.45;;;;;;;6.74;47.04;101070.84;4934279;29;20186;-72
2024/02/13 00:26:26;;;;;;;7.00;4.47;;;;;;;6.71;47.45;101076.47;4920361;29;20575;-72
2024/02/13 00:28:54;;;;;;;8.60;4.82;;;;;;;6.69;47.00;101083.88;4916091;29;20040;-72
2024/02/13 00:31:22;;;;;;;6.60;4.45;;;;;;;6.67;47.46;101083.13;4916206;29;20086;-72
2024/02/13 00:33:51;;;;;;;7.72;4.40;;;;;;;6.66;47.25;101087.69;4917096;29;20084;-72
2024/02/13 00:36:21;;;;;;;6.78;4.35;;;;;;;6.66;47.41;101094.97;4947410;29;20304;-72
2024/02/13 00:38:49;;;;;;;6.57;4.30;;;;;;;6.63;47.54;101095.16;4935925;29;20126;-72
2024/02/13 00:41:17;;;;;;;7.70;4.38;;;;;;;6.62;47.32;101104.28;4934469;29;20047;-72
2024/02/13 00:43:45;;;;;;;7.00;4.25;;;;;;;6.63;47.49;101106.03;4935759;29;20070;-72
2024/02/13 00:46:13;;;;;;;6.75;4.47;;;;;;;6.64;47.17;101107.78;4919540;29;20138;-72
2024/02/13 00:48:42;;;;;;;7.28;4.57;;;;;;;6.62;47.33;101099.72;4935653;29;20138;-72
2024/02/13 00:51:10;;;;;;;6.97;4.65;;;;;;;6.62;47.58;101107.88;4936047;29;20484;-72
2024/02/13 00:53:41;;;;;;;6.60;4.72;;;;;;;6.62;47.53;101107.88;4936496;23;20134;31
2024/02/13 00:56:09;;;;;;;8.48;4.93;;;;;;;6.62;47.53;101105.16;4949052;28;20060;-83
2024/02/13 00:58:37;;;;;;;7.50;4.45;;;;;;;6.65;47.34;101120.41;4936825;28;20043;-83
2024/02/13 01:01:09;;;;;;;9.13;5.32;;;;;;;6.57;47.40;101112.78;4938924;29;20477;-84
2024/02/13 01:03:37;;;;;;;7.03;4.57;;;;;;;6.58;47.04;101109.09;4960663;28;20079;-83
2024/02/13 01:06:06;;;;;;;6.55;4.15;;;;;;;6.58;46.89;101113.66;4965118;28;20451;-84
2024/02/13 01:08:34;;;;;;;7.10;4.88;;;;;;;6.57;47.06;101117.34;4954862;28;20053;-84
2024/02/13 01:11:04;;;;;;;7.20;4.82;;;;;;;6.54;47.13;101117.53;4973128;28;20043;-84
2024/02/13 01:13:33;;;;;;;7.03;4.35;;;;;;;6.53;47.28;101122.09;4955789;28;20300;-84
2024/02/13 01:16:03;;;;;;;7.57;4.68;;;;;;;6.48;47.09;101117.94;4955839;28;20101;-84
2024/02/13 01:18:32;;;;;;;6.80;5.03;;;;;;;6.47;46.76;101125.22;4963539;28;20051;-84
2024/02/13 01:21:00;;;;;;;8.70;5.20;;;;;;;6.43;46.83;101126.41;4971822;28;20039;-85
2024/02/13 01:23:28;;;;;;;8.40;5.00;;;;;;;6.40;47.16;101132.03;4949730;28;20388;-84
2024/02/13 01:25:59;;;;;;;7.03;5.05;;;;;;;6.36;46.74;101123.25;4955848;28;20058;-83
2024/02/13 01:28:28;;;;;;;8.02;5.30;;;;;;;6.35;47.20;101143.25;4956459;28;20060;-84
2024/02/13 01:30:58;;;;;;;6.93;4.75;;;;;;;6.32;47.09;101151.59;4952251;28;20043;-84
2024/02/13 01:33:26;;;;;;;7.15;4.35;;;;;;;6.31;47.33;101157.09;4943320;28;20039;-83
2024/02/13 01:35:55;;;;;;;6.70;4.72;;;;;;;6.29;47.38;101154.47;4953800;28;20514;-84
2024/02/13 01:38:25;;;;;;;7.28;4.93;;;;;;;6.28;47.30;101147.31;4954634;28;20046;-84
2024/02/13 01:40:54;;;;;;;7.78;5.32;;;;;;;6.25;47.44;101149.38;4947616;28;20058;-83
2024/02/13 01:43:24;;;;;;;6.20;4.93;;;;;;;6.24;47.28;101155.78;4954394;28;20050;-84
2024/02/13 01:45:56;;;;;;;7.40;5.22;;;;;;;6.23;47.20;101151.31;4953280;28;20051;-83
2024/02/13 01:48:25;;;;;;;7.88;5.00;;;;;;;6.18;47.17;101148.03;4956562;28;20477;-84
2024/02/13 01:50:56;;;;;;;10.43;5.47;;;;;;;6.16;46.94;101161.69;4955471;28;20075;-84
2024/02/13 01:53:27;;;;;;;8.10;5.57;;;;;;;6.11;46.83;101169.28;4965048;28;20396;-83
2024/02/13 01:55:57;;;;;;;8.02;5.03;;;;;;;6.11;46.88;101166.56;4953995;28;20046;-83
2024/02/13 01:58:26;;;;;;;8.27;5.25;;;;;;;6.03;46.68;101155.31;4946436;28;20046;-83
2024/02/13 02:01:00;;;;;;;9.05;5.35;;;;;;;6.00;46.70;101163.66;4951892;28;20046;-83
2024/02/13 02:03:33;;;;;;;7.45;5.03;;;;;;;5.99;46.62;101164.63;4949607;28;20082;-84
2024/02/13 02:06:02;;;;;;;7.25;4.93;;;;;;;5.93;46.77;101157.75;4954119;28;20062;-83
2024/02/13 02:08:31;;;;;;;6.63;4.95;;;;;;;5.89;46.56;101158.91;4963160;28;20061;-85
2024/02/13 02:10:59;;;;;;;9.77;5.30;;;;;;;5.89;46.71;101164.31;4958086;28;20522;-84
2024/02/13 02:13:29;;;;;;;6.93;4.53;;;;;;;5.85;46.59;101162.78;4957081;28;20122;-83
2024/02/13 02:15:58;;;;;;;7.60;4.97;;;;;;;5.82;46.80;101160.25;4973501;28;20049;-84
2024/02/13 02:18:26;;;;;;;7.00;4.90;;;;;;;5.77;46.67;101158.81;4949402;28;20039;-83
2024/02/13 02:20:56;;;;;;;7.30;5.13;;;;;;;5.77;46.99;101167.84;4950120;28;20275;-83
2024/02/13 02:23:26;;;;;;;8.30;4.88;;;;;;;5.75;46.87;101167.03;4949689;28;20042;-83
2024/02/13 02:25:56;;;;;;;7.15;5.25;;;;;;;5.74;47.17;101167.13;4963714;28;20097;-82
2024/02/13 02:28:25;;;;;;;7.00;4.70;;;;;;;5.73;47.35;101168.09;4948389;28;20114;-83
2024/02/13 02:30:54;;;;;;;7.80;5.55;;;;;;;5.73;47.17;101166.25;4948726;28;20121;-84
2024/02/13 02:33:24;;;;;;;8.98;5.25;;;;;;;5.70;47.47;101174.63;4952303;28;20375;-82
2024/02/13 02:35:53;;;;;;;7.28;5.03;;;;;;;5.69;47.11;101170.16;4949432;28;20403;-83
2024/02/13 02:38:22;;;;;;;7.97;5.30;;;;;;;5.70;47.27;101174.63;4967878;28;20407;-82
2024/02/13 02:40:50;;;;;;;9.35;5.55;;;;;;;5.69;47.66;101170.16;4949070;28;20137;-82
2024/02/13 02:43:20;;;;;;;8.95;5.32;;;;;;;5.71;47.34;101170.91;4950476;28;20113;-83
2024/02/13 02:45:48;;;;;;;7.60;5.15;;;;;;;5.68;47.35;101177.44;4950154;28;20038;-83
2024/02/13 02:48:18;;;;;;;7.05;5.35;;;;;;;5.69;47.14;101178.31;4953812;28;20053;-82
2024/02/13 02:50:46;;;;;;;10.23;5.82;;;;;;;5.67;47.39;101182.94;4966510;28;20091;-83
2024/02/13 02:53:15;;;;;;;8.50;5.63;;;;;;;5.66;47.26;101195.66;4952334;28;20035;-82
2024/02/13 02:55:48;;;;;;;8.75;5.68;;;;;;;5.61;47.32;101180.63;4967518;28;20042;-84
2024/02/13 02:58:16;;;;;;;9.23;5.65;;;;;;;5.63;47.16;101186.81;4970156;28;20046;-84
2024/02/13 03:00:45;;;;;;;8.52;5.35;;;;;;;5.61;47.25;101184.22;4969120;28;20383;-84
2024/02/13 03:03:14;;;;;;;7.38;5.25;;;;;;;5.58;47.51;101178.97;4974199;28;20042;-84
2024/02/13 03:05:43;;;;;;;7.57;5.47;;;;;;;5.59;47.19;101187.97;4970199;28;20066;-84
2024/02/13 03:08:12;;;;;;;8.38;5.70;;;;;;;5.55;47.31;101178.25;4988695;28;20046;-84
2024/02/13 03:10:41;;;;;;;7.90;5.80;;;;;;;5.53;47.22;101189.25;4975320;28;20046;-84
2024/02/13 03:13:12;;;;;;;8.63;5.40;;;;;;;5.54;47.33;101196.38;4973929;28;20042;-84
2024/02/13 03:15:40;;;;;;;8.73;5.80;;;;;;;5.54;47.40;101196.38;4968262;28;20046;-84
2024/02/13 03:18:10;;;;;;;8.55;5.93;;;;;;;5.55;47.33;101205.41;4984986;28;20162;-85
2024/02/13 03:20:40;;;;;;;7.68;5.68;;;;;;;5.53;47.81;101199.22;4976240;28;20070;-85
2024/02/13 03:23:08;;;;;;;9.05;5.97;;;;;;;5.56;47.53;101201.72;4969469;28;20134;-85
2024/02/13 03:25:36;;;;;;;10.00;5.97;;;;;;;5.52;47.59;101206.50;4968967;28;20042;-85
2024/02/13 03:28:05;;;;;;;8.63;5.95;;;;;;;5.55;47.29;101211.72;4971146;28;20059;-84
2024/02/13 03:30:33;;;;;;;9.40;6.15;;;;;;;5.53;48.08;101201.94;4969949;28;20050;-84
2024/02/13 03:33:01;;;;;;;9.73;6.38;;;;;;;5.53;47.61;101207.38;4968121;28;20038;-84
2024/02/13 03:35:31;;;;;;;9.02;6.18;;;;;;;5.57;47.95;101214.34;4965708;28;20125;-84
2024/02/13 03:38:00;;;;;;;8.75;5.75;;;;;;;5.53;47.73;101204.66;4971612;28;20109;-85
2024/02/13 03:40:28;;;;;;;9.57;5.85;;;;;;;5.51;47.56;101199.31;4970380;28;20074;-85
2024/02/13 03:42:56;;;;;;;10.88;6.35;;;;;;;5.54;48.03;101200.97;4969955;28;20049;-85
2024/02/13 03:45:24;;;;;;;9.40;5.97;;;;;;;5.54;47.98;101207.25;4969858;28;20458;-85
2024/02/13 03:47:52;;;;;;;9.68;5.95;;;;;;;5.53;48.02;101205.53;4974592;28;20057;-84
2024/02/13 03:50:20;;;;;;;8.95;5.85;;;;;;;5.52;47.72;101203.78;4991852;28;20062;-85
2024/02/13 03:52:50;;;;;;;11.52;6.43;;;;;;;5.54;47.96;101215.38;4972647;28;20093;-85
2024/02/13 03:55:19;;;;;;;9.45;6.38;;;;;;;5.51;47.87;101214.72;4960096;28;20079;-84
2024/02/13 03:57:49;;;;;;;8.00;5.65;;;;;;;5.51;48.07;101207.47;4950148;28;20418;-84
2024/02/13 04:00:18;;;;;;;9.07;6.32;;;;;;;5.52;48.18;101213.75;4970707;28;20039;-84
2024/02/13 04:02:46;;;;;;;8.35;5.72;;;;;;;5.53;48.25;101218.22;4963902;28;20051;-84
2024/02/13 04:05:15;;;;;;;9.90;5.45;;;;;;;5.55;48.61;101217.16;4950710;28;20045;-85
2024/02/13 04:07:44;;;;;;;9.02;6.13;;;;;;;5.56;48.71;101216.19;4957418;28;20468;-83
2024/02/13 04:10:13;;;;;;;10.73;6.25;;;;;;;5.57;48.48;101217.94;4955955;28;20689;-83
2024/02/13 04:12:43;;;;;;;9.85;5.93;;;;;;;5.61;48.65;101215.91;4952061;28;20111;-82
2024/02/13 04:15:12;;;;;;;11.07;5.97;;;;;;;5.61;48.52;101213.19;4951409;28;20051;-83
2024/02/13 04:17:40;;;;;;;8.80;6.05;;;;;;;5.61;48.65;101208.66;4952632;28;20122;-83
2024/02/13 04:20:09;;;;;;;11.00;5.68;;;;;;;5.66;48.70;101214.66;4955531;28;20157;-83
2024/02/13 04:22:37;;;;;;;9.00;5.75;;;;;;;5.68;48.59;101220.88;4973839;28;20452;-83
2024/02/13 04:25:06;;;;;;;11.38;5.63;;;;;;;5.67;48.58;101210.97;4952757;28;20510;-83
2024/02/13 04:27:36;;;;;;;8.63;5.72;;;;;;;5.74;49.00;101221.44;4956205;28;20174;-83
2024/02/13 04:30:07;;;;;;;9.73;5.97;;;;;;;5.74;49.15;101221.44;4965745;28;20364;-83
2024/02/13 04:32:37;;;;;;;9.52;5.55;;;;;;;5.77;48.87;101227.59;4963960;28;20035;-83
2024/02/13 04:35:06;;;;;;;8.07;5.32;;;;;;;5.79;48.73;101220.19;4953521;28;20038;-84
2024/02/13 04:37:35;;;;;;;9.27;4.95;;;;;;;5.80;48.78;101226.50;4976413;28;20156;-83
2024/02/13 04:40:08;;;;;;;9.98;5.63;;;;;;;5.80;48.64;101221.94;4972254;28;20458;-83
2024/02/13 04:42:39;;;;;;;9.53;5.37;;;;;;;5.81;49.02;101217.38;4953878;28;20043;-84
2024/02/13 04:45:09;;;;;;;9.98;5.20;;;;;;;5.83;48.92;101224.47;4974687;28;20133;-84
2024/02/13 04:47:37;;;;;;;8.50;5.10;;;;;;;5.85;49.09;101230.69;4951013;28;20046;-84
2024/02/13 04:50:07;;;;;;;9.02;5.20;;;;;;;5.85;49.08;101217.13;4959397;28;20055;-83
2024/02/13 04:52:38;;;;;;;8.38;5.50;;;;;;;5.82;48.64;101225.44;4957292;28;20047;-83
2024/02/13 04:55:07;;;;;;;9.73;5.18;;;;;;;5.87;48.76;101228.72;4981153;28;20434;-83
2024/02/13 04:57:35;;;;;;;11.30;4.93;;;;;;;5.86;49.11;101228.84;4989535;28;20067;-83
2024/02/13 05:00:16;;;;;;;7.93;4.75;;;;;;;5.90;49.04;101233.13;4996249;28;20092;-84
2024/02/13 05:02:46;;;;;;;8.35;4.50;;;;;;;5.85;48.68;101229.81;4969528;28;20054;-84
2024/02/13 05:08:01;;;;;;;8.07;5.13;;;;;;;5.86;49.09;101228.84;4977668;28;20089;-83
2024/02/13 05:10:29;;;;;;;9.18;4.85;;;;;;;5.88;48.81;101233.19;4971111;28;20056;-83
2024/02/13 05:12:57;;;;;;;7.57;4.63;;;;;;;5.88;49.02;101233.19;4988868;28;20054;-84
2024/02/13 05:15:26;;;;;;;8.85;4.35;;;;;;;5.87;48.77;101245.03;4987188;28;20046;-85
2024/02/13 05:17:54;;;;;;;7.72;4.40;;;;;;;5.85;48.98;101237.97;4975462;28;20054;-85
2024/02/13 05:20:23;;;;;;;8.80;5.22;;;;;;;5.84;48.71;101226.22;4973970;28;20058;-85
2024/02/13 05:22:51;;;;;;;8.80;4.90;;;;;;;5.85;48.57;101230.69;4981876;28;20046;-85
2024/02/13 05:25:19;;;;;;;9.38;5.32;;;;;;;5.87;48.64;101241.47;4999198;28;20053;-84
2024/02/13 05:27:50;;;;;;;9.88;5.35;;;;;;;5.87;48.96;101246.91;4977585;28;20062;-84
2024/02/13 05:30:18;;;;;;;7.15;4.63;;;;;;;5.86;48.92;101245.16;4970947;28;20053;-84
2024/02/13 05:32:48;;;;;;;9.38;4.28;;;;;;;5.85;48.94;101237.97;4990430;28;20053;-85
2024/02/13 05:35:16;;;;;;;7.70;5.05;;;;;;;5.82;49.12;101239.03;4971958;28;20046;-84
2024/02/13 05:37:44;;;;;;;7.93;5.32;;;;;;;5.86;48.84;101250.59;4973641;28;20070;-85
2024/02/13 05:40:13;;;;;;;9.85;7.00;;;;;;;5.86;49.04;101250.59;4970521;28;20082;-85
2024/02/13 05:42:42;;;;;;;10.75;8.02;;;;;;;5.84;48.93;101256.09;4967178;28;20141;-86
2024/02/13 05:45:11;;;;;;;10.02;6.72;;;;;;;5.85;49.31;101257.88;4972116;28;20042;-86
2024/02/13 05:47:39;;;;;;;8.93;6.35;;;;;;;5.84;49.23;101253.38;4974736;28;20105;-84
2024/02/13 05:50:10;;;;;;;9.35;5.53;;;;;;;5.86;48.62;101251.47;4982586;28;20110;-85
2024/02/13 05:52:40;;;;;;;8.10;4.95;;;;;;;5.90;48.83;101255.72;4975619;28;20054;-86
2024/02/13 05:55:09;;;;;;;8.07;5.20;;;;;;;5.87;49.03;101252.34;4975354;28;20038;-86
2024/02/13 05:57:38;;;;;;;8.32;5.20;;;;;;;5.86;49.00;101250.59;4981691;28;20414;-84
2024/02/13 06:00:09;;;;;;;8.40;5.40;;;;;;;5.84;49.00;101247.97;4982625;28;20038;-85
2024/02/13 06:02:39;;;;;;;7.80;5.47;;;;;;;5.86;49.07;101256.91;4994024;28;20038;-84
2024/02/13 06:05:10;;;;;;;8.02;5.03;;;;;;;5.86;49.16;101253.31;4968594;28;20042;-86
2024/02/13 06:07:38;;;;;;;7.75;4.65;;;;;;;5.85;49.07;101254.28;4966941;28;20077;-85
2024/02/13 06:10:07;;;;;;;6.78;4.75;;;;;;;5.86;48.79;101259.63;4967892;28;20374;-85
2024/02/13 06:12:35;;;;;;;8.05;5.10;;;;;;;5.85;48.89;101263.28;4967614;28;20054;-86
2024/02/13 06:15:04;;;;;;;7.68;4.82;;;;;;;5.87;48.99;101263.19;4993344;28;20038;-85
2024/02/13 06:17:32;;;;;;;7.72;4.68;;;;;;;5.86;48.71;101253.31;4972858;28;20101;-85
2024/02/13 06:20:04;;;;;;;7.93;5.13;;;;;;;5.86;48.79;101261.44;4976492;28;20077;-85
2024/02/13 06:22:35;;;;;;;7.15;4.55;;;;;;;5.82;49.08;101260.75;4966959;28;20056;-83
2024/02/13 06:25:05;;;;;;;6.95;4.75;;;;;;;5.84;48.91;101263.38;4971378;28;20578;-84
2024/02/13 06:27:34;;;;;;;7.07;4.63;;;;;;;5.83;48.92;101265.22;4972018;28;20110;-83
2024/02/13 06:30:03;;;;;;;6.63;4.70;;;;;;;5.84;48.93;101271.53;4971734;28;20058;-83
2024/02/13 06:32:31;;;;;;;6.43;4.60;;;;;;;5.82;49.13;101266.19;4986394;28;20038;-83
2024/02/13 06:34:59;;;;;;;6.53;4.32;;;;;;;5.82;48.85;101268.03;4969755;28;20053;-83
2024/02/13 06:37:27;;;;;;;6.55;4.13;;;;;;;5.80;48.71;101276.25;4978541;28;20406;-84
2024/02/13 06:39:57;;;;;;;6.30;4.07;;;;;;;5.82;48.74;101278.88;4973014;28;20046;-84
2024/02/13 06:42:26;;;;;;;6.90;3.67;;;;;;;5.78;48.88;101275.50;4968055;28;20041;-85
2024/02/13 06:44:56;;;;;;;6.80;3.70;;;;;;;5.80;48.89;101281.69;4970262;28;20047;-84
2024/02/13 06:47:25;;;;;;;8.32;3.75;;;;;;;5.79;49.01;101281.81;4983177;28;20049;-84
2024/02/13 06:49:54;;;;;;;7.78;3.70;;;;;;;5.78;48.94;101278.22;4960096;28;20045;-84
2024/02/13 06:52:22;;;;;;;6.13;3.08;;;;;;;5.77;48.99;101276.47;4955386;28;20039;-83
2024/02/13 06:54:50;;;;;;;6.05;3.22;;;;;;;5.76;48.83;101282.88;4962871;28;20165;-83
2024/02/13 06:57:20;;;;;;;8.32;3.60;;;;;;;5.79;48.95;101287.25;4972151;28;20045;-84
2024/02/13 06:59:49;;;;;;;6.80;3.55;;;;;;;5.76;49.07;101285.59;4967548;28;20047;-83
2024/02/13 07:02:17;;;;;;;8.18;3.42;;;;;;;5.77;49.19;101289.19;4994002;28;20096;-85
2024/02/13 07:04:45;;;;;;;8.02;3.60;;;;;;;5.78;49.12;101297.22;4972746;28;20137;-85
2024/02/13 07:07:14;;;;;;;6.45;3.15;;;;;;;5.78;48.92;101297.22;4972830;28;20049;-86
2024/02/13 07:10:00;;;;;;;5.22;3.03;;;;;;;5.74;49.13;101301.09;4970257;28;20059;-85
2024/02/13 07:12:31;;;;;;;6.20;3.35;;;;;;;5.80;48.89;101305.25;4973482;28;20122;-86
2024/02/13 07:14:59;;;;;;;5.82;3.10;;;;;;;5.77;49.20;101300.03;4969267;28;20133;-86
2024/02/13 07:17:27;;;;;;;6.75;3.38;;;;;;;5.76;49.17;101292.84;4969885;28;20034;-86
2024/02/13 07:19:57;;;;;;;5.25;3.10;;;;;;;5.79;49.46;101309.81;4970529;28;20105;-84
2024/02/13 07:22:26;;;;;;;4.55;2.95;;;;;;;5.79;49.01;101314.41;4966043;28;20053;-85
2024/02/13 07:24:54;;;;;;;6.15;2.95;;;;;;;5.80;49.38;101310.69;4986848;28;20042;-85
2024/02/13 07:27:22;;;;;;;5.45;2.67;;;;;;;5.81;49.39;101326.03;4969511;28;20092;-85
2024/02/13 07:29:54;;;;;;;6.50;3.08;;;;;;;5.84;49.31;101328.56;4971247;28;20126;-86
2024/02/13 07:32:23;;;;;;;5.90;2.70;;;;;;;5.84;49.45;101331.28;4974939;28;20090;-85
2024/02/13 07:34:52;;;;;;;5.30;3.08;;;;;;;5.85;49.54;101331.19;4966109;28;20314;-85
2024/02/13 07:37:20;;;;;;;6.68;2.70;;;;;;;5.85;49.50;101331.19;4970714;28;20053;-86
2024/02/13 07:39:48;;;;;;;4.53;2.83;;;;;;;5.87;49.33;101336.56;4970883;28;20104;-85
2024/02/13 07:42:17;;;;;;;5.03;2.85;;;;;;;5.90;49.34;101339.94;4982493;28;20050;-85
2024/02/13 07:44:45;;;;;;;5.85;2.72;;;;;;;5.92;49.23;101348.88;4968654;28;20070;-86
2024/02/13 07:47:15;;;;;;;5.20;2.75;;;;;;;5.93;49.57;101344.31;4972606;28;20097;-86
2024/02/13 07:49:44;;;;;;;6.88;3.03;;;;;;;5.95;49.57;101353.25;4972612;28;20046;-86
2024/02/13 07:52:12;;;;;;;5.10;2.65;;;;;;;5.96;49.62;101345.00;4970183;28;20047;-86
2024/02/13 07:54:40;;;;;;;5.03;2.40;;;;;;;5.97;49.12;101344.03;4975774;28;20039;-87
2024/02/13 07:57:08;;;;;;;4.78;2.40;;;;;;;5.96;49.41;101346.81;4987723;28;20041;-85
2024/02/13 07:59:37;;;;;;;5.93;2.50;;;;;;;6.00;49.39;101359.28;4968245;28;20046;-87
2024/02/13 08:02:05;;;;;;;3.63;2.22;;;;;;;6.00;49.26;101362.00;4969165;28;20186;-87
2024/02/13 08:04:35;;;;;;;5.50;2.40;;;;;;;6.04;49.50;101367.13;4971585;28;20055;-87
2024/02/13 08:07:04;;;;;;;4.13;2.30;;;;;;;6.05;49.58;101363.44;4971648;28;20054;-86
2024/02/13 08:09:34;;;;;;;4.93;2.22;;;;;;;6.04;49.44;101367.13;4967054;28;20042;-85
2024/02/13 08:12:06;;;;;;;5.88;2.38;;;;;;;6.06;49.73;101361.63;4986922;28;20116;-87
2024/02/13 08:14:38;;;;;;;4.40;2.50;;;;;;;6.05;49.36;101371.59;4973985;28;20073;-85
2024/02/13 08:17:15;;;;;;;4.68;2.35;;;;;;;6.10;48.82;101371.34;4971092;28;20047;-86
2024/02/13 08:19:53;;;;;;;4.07;2.25;;;;;;;6.12;49.54;101373.97;4967920;28;20068;-88
2024/02/13 08:25:52;;;;;;;5.40;2.00;;;;;;;6.10;49.41;101370.47;4988301;28;20042;-88
2024/02/13 08:28:26;;;;;;;3.73;1.93;;;;;;;6.13;49.61;101381.13;4958397;28;20043;-88
2024/02/13 08:30:59;;;;;;;5.03;2.30;;;;;;;6.16;49.42;101370.09;4978090;28;20042;-87
2024/02/13 08:37:20;;;;;;;5.20;1.80;;;;;;;6.16;49.47;101372.81;4983148;28;20121;-85
2024/02/13 08:40:09;;;;;;;4.53;2.10;;;;;;;6.21;49.04;101386.97;4977106;28;20042;-87
2024/02/13 08:42:39;;;;;;;;;;;;;;;5.96;49.85;101382.16;4978693;28;20428;-86
2024/02/13 08:45:09;;;;;;;3.92;1.98;;;;;;;6.17;49.42;101375.44;4984963;28;19928;-86
2024/02/13 08:47:38;;;;;;;5.03;2.10;;;;;;;6.21;49.53;101392.41;5007440;28;20070;-86
2024/02/13 08:50:12;;;;;;;5.70;2.45;;;;;;;6.19;49.22;101384.38;4988436;28;20042;-87
2024/02/13 08:52:45;;;;;;;4.07;2.05;;;;;;;6.22;49.22;101394.16;4989101;28;20513;-86
2024/02/13 08:55:21;;;;;;;4.45;2.40;;;;;;;6.21;49.47;101392.41;4989738;28;20061;-86
2024/02/13 08:58:05;;;;;;;3.53;2.17;;;;;;;6.22;49.65;101396.88;4966435;28;20125;-86
2024/02/13 09:04:34;;;;;;;4.80;2.13;;;;;;;6.29;49.93;101396.41;4944787;28;20129;-88
2024/02/13 09:12:25;;;;;;;5.03;2.00;;;;;;;6.36;49.13;101405.09;4971451;28;20043;-87
2024/02/13 09:15:11;;;;;;;4.47;1.80;;;;;;;6.42;49.95;101412.88;4954788;28;20126;-87
2024/02/13 09:21:16;;;;;;;4.63;1.85;;;;;;;6.51;49.91;101415.00;4938245;28;20054;-87
2024/02/13 09:23:45;;;;;;;;;;;;;;;6.31;49.97;101410.78;4971981;28;20503;-86
2024/02/13 09:26:14;;;;;;;3.03;1.70;;;;;;;6.56;50.01;101407.44;4973358;28;19925;-86
2024/02/13 09:29:03;;;;;;;4.90;1.70;;;;;;;6.66;49.56;101414.06;4959640;28;20154;-86
2024/02/13 09:31:43;;;;;;;6.15;2.00;;;;;;;6.73;49.60;101409.97;4975462;28;20141;-86
2024/02/13 09:34:19;;;;;;;5.18;2.00;;;;;;;6.81;50.39;101423.13;4975031;28;20542;-87
2024/02/13 09:36:50;;;;;;;4.25;1.70;;;;;;;6.90;50.04;101413.50;4972686;28;20462;-86
2024/02/13 09:39:28;;;;;;;4.65;1.50;;;;;;;6.94;50.40;101415.94;4978390;28;20101;-87
2024/02/13 09:41:57;;;;;;;3.47;1.60;;;;;;;7.04;50.25;101408.06;4966823;28;20047;-86
2024/02/13 09:44:29;;;;;;;3.60;1.50;;;;;;;7.12;50.31;101413.88;4973675;28;20475;-87
2024/02/13 09:47:11;;;;;;;5.10;1.50;;;;;;;7.21;50.15;101413.28;4965863;28;20054;-88
2024/02/13 09:49:43;;;;;;;4.38;1.75;;;;;;;7.28;50.04;101414.63;4960737;28;20054;-89
2024/02/13 09:52:16;;;;;;;3.20;1.50;;;;;;;7.41;49.73;101415.59;4985813;28;20078;-89
2024/02/13 09:54:45;;;;;;;4.07;1.52;;;;;;;7.51;49.74;101421.31;4964832;28;20375;-89
2024/02/13 09:57:17;;;;;;;2.88;1.40;;;;;;;7.60;49.78;101409.78;4972104;28;20039;-89
2024/02/13 09:59:49;;;;;;;3.08;1.30;;;;;;;7.68;49.99;101422.94;4958058;28;20467;-89
2024/02/13 10:02:29;;;;;;;4.55;1.33;;;;;;;7.75;49.02;101422.41;4971881;28;20419;-88
2024/02/13 10:05:01;;;;;;;;;;;;;;;7.58;49.67;101431.72;4970759;28;25706;-88
2024/02/13 10:07:31;;;;;;;3.25;1.25;;;;;;;7.85;49.55;101425.38;4993394;28;20000;-88
2024/02/13 10:10:10;;;;;;;3.47;1.10;;;;;;;7.99;49.25;101419.00;4968962;28;20359;-88
2024/02/13 10:12:49;;;;;;;3.28;1.00;;;;;;;8.06;49.20;101432.13;4979439;28;20042;-88
2024/02/13 10:19:27;;;;;;;4.20;1.25;;;;;;;8.25;48.91;101445.41;4979802;28;20046;-88
2024/02/13 10:22:05;;;;;;;4.45;1.48;;;;;;;8.35;47.37;101446.50;4954692;28;20041;-88
2024/02/13 10:24:34;;;;;;;2.88;1.10;;;;;;;8.44;48.60;101437.69;4967901;28;20502;-88
2024/02/13 10:27:04;;;;;;;3.17;1.00;;;;;;;8.51;48.01;101435.41;4967250;28;20073;-88
2024/02/13 10:29:43;;;;;;;3.08;1.00;;;;;;;8.56;46.53;101442.31;4972702;28;20495;-87
2024/02/13 10:32:12;;;;;;;4.05;1.38;;;;;;;8.60;48.09;101432.03;4971318;28;20038;-87
2024/02/13 10:34:53;;;;;;;3.63;1.30;;;;;;;8.65;47.71;101436.19;4967810;28;20450;-87
2024/02/13 10:37:28;;;;;;;3.13;1.13;;;;;;;8.69;47.96;101439.56;4969566;28;20096;-88
2024/02/13 10:40:22;;;;;;;2.75;0.90;;;;;;;8.72;46.13;101436.63;4979597;28;20039;-88
2024/02/13 10:42:51;;;;;;;2.30;1.05;;;;;;;8.77;47.40;101437.16;4965835;28;20043;-87
2024/02/13 10:45:23;;;;;;;4.05;1.20;;;;;;;8.83;47.76;101444.06;4970854;28;20355;-88
2024/02/13 10:47:54;;;;;;;3.08;1.10;;;;;;;8.88;47.32;101439.16;4972797;28;20489;-88
2024/02/13 10:50:40;;;;;;;2.70;0.95;;;;;;;8.96;46.24;101439.47;4959155;28;20122;-88
2024/02/13 10:53:29;;;;;;;3.63;1.30;;;;;;;9.00;46.38;101436.41;4967604;28;20057;-88
2024/02/13 10:55:58;;;;;;;2.70;1.00;;;;;;;9.03;47.26;101432.56;4969056;28;20046;-89
2024/02/13 10:58:29;;;;;;;4.80;1.00;;;;;;;9.06;47.00;101440.56;4972187;28;20093;-88
2024/02/13 11:01:02;;;;;;;3.25;1.00;;;;;;;9.09;46.42;101432.13;4963937;28;20419;-88
2024/02/13 11:03:31;;;;;;;3.25;1.10;;;;;;;9.14;46.38;101432.69;4974611;28;20042;-88
2024/02/13 11:06:01;;;;;;;2.38;0.93;;;;;;;9.17;46.13;101429.72;4964923;28;20049;-88
2024/02/13 11:08:31;;;;;;;2.63;0.90;;;;;;;9.17;46.35;101437.03;4970763;28;20112;-88
2024/02/13 11:11:03;;;;;;;3.15;1.10;;;;;;;9.22;46.45;101427.53;4962099;28;20126;-88
2024/02/13 11:13:34;;;;;;;2.47;1.13;;;;;;;9.22;46.35;101432.13;4967929;28;20133;-88
2024/02/13 11:16:05;;;;;;;2.00;1.00;;;;;;;9.26;45.57;101433.63;4967649;28;20046;-87
2024/02/13 11:18:52;;;;;;;2.50;1.15;;;;;;;9.27;44.77;101433.53;4978865;28;20053;-88
2024/02/13 11:21:33;;;;;;;2.47;0.85;;;;;;;9.31;44.47;101426.88;4971500;28;20419;-87
2024/02/13 11:24:12;;;;;;;5.28;1.10;;;;;;;9.30;45.19;101421.50;4970133;28;20046;-89
2024/02/13 11:26:40;;;;;;;3.80;1.13;;;;;;;9.30;45.81;101425.13;4970739;28;20558;-88
2024/02/13 11:29:12;;;;;;;2.00;1.05;;;;;;;9.38;44.38;101419.09;4974853;28;20046;-88
2024/02/13 11:31:53;;;;;;;2.08;1.20;;;;;;;9.34;45.04;101429.34;4965667;28;20137;-89
2024/02/13 11:34:22;;;;;;;3.47;0.90;;;;;;;9.38;45.52;101419.09;4968938;28;20049;-88
2024/02/13 11:36:53;;;;;;;2.38;0.73;;;;;;;9.41;44.74;101419.75;4967101;28;20135;-87
2024/02/13 11:39:26;;;;;;;2.45;1.02;;;;;;;9.40;44.38;101407.09;4972971;28;20042;-87
2024/02/13 11:42:01;;;;;;;1.80;0.80;;;;;;;9.42;44.01;101398.78;4971099;28;20057;-87
2024/02/13 11:44:30;;;;;;;2.53;0.73;;;;;;;9.44;44.77;101405.88;4972081;28;20042;-88
2024/02/13 11:46:59;;;;;;;2.10;1.00;;;;;;;9.46;44.54;101423.03;4981357;28;20050;-87
2024/02/13 11:49:32;;;;;;;2.75;1.52;;;;;;;9.49;43.92;101412.88;4977537;28;20046;-88
2024/02/13 11:52:04;;;;;;;2.47;0.88;;;;;;;9.49;44.42;101413.75;4941507;28;20054;-86
2024/02/13 11:54:35;;;;;;;3.05;1.05;;;;;;;9.51;45.05;101417.22;4966817;28;20043;-87
2024/02/13 11:57:04;;;;;;;2.78;1.00;;;;;;;9.53;45.00;101408.91;4970447;28;20117;-86
2024/02/13 11:59:35;;;;;;;1.70;0.90;;;;;;;9.57;44.95;101411.31;4971307;28;20058;-87
2024/02/13 12:20:34;;;;;;;2.47;0.90;;;;;;;9.78;44.33;101415.16;4931782;28;20093;-87
2024/02/13 12:32:38;;;;;;;1.70;0.93;;;;;;;9.80;42.50;101406.84;4975409;28;20119;-88
2024/02/13 12:35:11;;;;;;;3.58;1.10;;;;;;;9.82;43.75;101411.19;4985720;28;20058;-76
2024/02/13 12:37:40;;;;;;;4.63;0.98;;;;;;;9.82;44.07;101405.72;4971628;28;20051;-76
2024/02/13 12:40:15;;;;;;;1.77;0.85;;;;;;;9.85;43.20;101410.97;4970065;28;20053;-76
2024/02/13 12:42:43;;;;;;;1.88;0.82;;;;;;;9.84;43.15;101409.22;4979419;28;20532;-76
2024/02/13 12:45:11;;;;;;;2.33;0.85;;;;;;;9.85;43.48;101401.88;4968301;28;20043;-76